Hartselle, Alabama
Current Conditions -  °F | °C
As of 12:55 AM on Thursday 23 Oct 2014 (Local Time) from KCMD Reporting Station
Clear Clear  
Wind Chill: 40°   Ceiling: Unl
Heat Index: 40°   Visibility: 10mi
Dew Point: 39°   Wind: 0mph
Humidity: 97%   Direction: NA
Pressure: 30.17"   Gusts: NA
Location:  34.44°N, 86.94°W
Report Text: KCMD 230555Z AUTO 00000KT 10SM CLR 05/04 A3017 RMK AO2 T00460041
Loading
Personal Weather Stations






























Interactive Weather Map
Tropical Storm Tracking
New forecast layout! Learn more

10-Day Weather Forecast

Advertisements
Track Severe Weather on mobile